Puerto Montt, Chile
Current Conditions -  °F | °C
As of 8:00 PM on Thursday 18 Dec 2014 (Local Time) from SCTE Reporting Station
Overcast Overcast  
Wind Chill: 59°   Ceiling: 2500
Heat Index: 59°   Visibility: 6mi
Dew Point: 50°   Wind: 8mph
Humidity: 72%   Direction: 300°WNW
Pressure: 29.91"   Gusts: NA
Location:  41.47°S, 72.94°W
Report Text: SCTE 190000Z 30007KT 9999 OVC025 15/10 Q1013 NOSIG
Loading
Personal Weather Stations






























Interactive Weather Map New forecast layout! Learn more

10-Day Weather Forecast

Advertisements
Track Severe Weather on mobile